Karachi Weather



Karachi's Current Weather

Temprature 36o scattered clouds

scattered clouds

Rain: 0 %

Min Temprature36o
Max Temprature36o
Humidity47
Wind Speed7.7 m/h
Sun Rise05:44:13
Sun Set19:24:50
Current Time: 26-Jun-2019 14:58:38
Lat/Lon: 24.87, 67.03




Karachi's Geo Location



Karachi's Weather Forecast

Time Overall Temp Min Temp Max Temp Humidity Wind Speed Rain
26-Jun-2019 (Wed)
17:00:00 clear sky 32.780 32.750 32.780 59 8.49 m/h 0 %
20:00:00 clear sky 29.170 29.147 29.170 77 6.7 m/h 0 %
23:00:00 clear sky 28.760 28.740 28.760 80 6.39 m/h 0 %
27-Jun-2019 (Thu)
02:00:00 broken clouds 28.390 28.379 28.390 81 7.13 m/h 0 %
05:00:00 broken clouds 28.665 28.665 28.665 78 8.54 m/h 0 %
08:00:00 scattered clouds 29.850 29.850 29.850 71 9.26 m/h 0 %
11:00:00 scattered clouds 32.874 32.874 32.874 58 10.09 m/h 0 %
14:00:00 few clouds 33.650 33.650 33.650 54 10.87 m/h 0 %
17:00:00 clear sky 31.780 31.780 31.780 63 10.99 m/h 0 %
20:00:00 few clouds 28.594 28.594 28.594 79 8.3 m/h 0 %
23:00:00 scattered clouds 28.935 28.935 28.935 74 8.85 m/h 0 %
28-Jun-2019 (Fri)
02:00:00 scattered clouds 28.428 28.428 28.428 76 8.16 m/h 0 %
05:00:00 broken clouds 28.828 28.828 28.828 72 9.25 m/h 0 %
08:00:00 light rain 29.779 29.779 29.779 68 9.84 m/h 6 %
11:00:00 overcast clouds 32.325 32.325 32.325 58 10.97 m/h 0 %
14:00:00 scattered clouds 33.731 33.731 33.731 55 11.15 m/h 0 %
17:00:00 few clouds 32.050 32.050 32.050 62 10.51 m/h 0 %
20:00:00 scattered clouds 28.950 28.950 28.950 76 7.86 m/h 0 %
23:00:00 broken clouds 29.372 29.372 29.372 73 8.66 m/h 0 %
29-Jun-2019 (Sat)
02:00:00 light rain 28.672 28.672 28.672 75 8.07 m/h 13 %
05:00:00 broken clouds 28.669 28.669 28.669 74 7.91 m/h 0 %
08:00:00 light rain 30.127 30.127 30.127 69 8.9 m/h 6 %
11:00:00 light rain 33.050 33.050 33.050 58 10.82 m/h 6 %
14:00:00 few clouds 34.450 34.450 34.450 54 10.54 m/h 0 %
17:00:00 few clouds 32.091 32.091 32.091 64 10.32 m/h 0 %
20:00:00 few clouds 29.150 29.150 29.150 78 8.28 m/h 0 %
23:00:00 broken clouds 29.150 29.150 29.150 75 8.69 m/h 0 %
30-Jun-2019 (Sun)
02:00:00 light rain 28.566 28.566 28.566 77 7.44 m/h 13 %
05:00:00 light rain 28.972 28.972 28.972 74 8.23 m/h 6 %
08:00:00 overcast clouds 30.042 30.042 30.042 68 8.3 m/h 0 %
11:00:00 overcast clouds 31.918 31.918 31.918 63 9.74 m/h 0 %
14:00:00 broken clouds 33.808 33.808 33.808 55 10.58 m/h 0 %
17:00:00 scattered clouds 32.050 32.050 32.050 64 10.07 m/h 0 %
20:00:00 scattered clouds 29.050 29.050 29.050 78 7.69 m/h 0 %
23:00:00 broken clouds 29.250 29.250 29.250 74 6.89 m/h 0 %
01-Jul-2019 (Mon)
02:00:00 overcast clouds 29.350 29.350 29.350 72 6.78 m/h 0 %
05:00:00 overcast clouds 29.135 29.135 29.135 74 7.7 m/h 0 %
08:00:00 light rain 29.750 29.750 29.750 71 7.08 m/h 13 %
11:00:00 light rain 31.450 31.450 31.450 63 7.67 m/h 6 %
14:00:00 scattered clouds 34.550 34.550 34.550 52 7.85 m/h 0 %


Karachi's Tourist Spots

Parks and Zoos in Karachi

Famous Cities (60)